createdAt,value
2016-03-22T00:00:21.220Z,6.42
2016-03-22T00:01:21.223Z,6.42
2016-03-22T00:02:21.194Z,6.43
2016-03-22T00:03:21.182Z,6.48
2016-03-22T00:04:21.169Z,6.52
2016-03-22T00:05:21.139Z,6.46
2016-03-22T00:06:21.128Z,6.55
2016-03-22T00:07:21.130Z,6.42
2016-03-22T00:08:21.116Z,6.48
2016-03-22T00:09:21.072Z,6.46
2016-03-22T00:10:21.075Z,6.45
2016-03-22T00:11:21.063Z,6.4
2016-03-22T00:12:21.034Z,6.5
2016-03-22T00:13:21.036Z,6.45
2016-03-22T00:14:21.007Z,6.5
2016-03-22T00:15:20.995Z,6.43
2016-03-22T00:16:20.982Z,6.46
2016-03-22T00:17:20.968Z,6.45
2016-03-22T00:18:20.941Z,6.45
2016-03-22T00:19:20.927Z,6.42
2016-03-22T00:20:20.930Z,6.43
2016-03-22T00:21:20.902Z,6.35
2016-03-22T00:22:20.888Z,6.42
2016-03-22T00:23:20.876Z,6.43
2016-03-22T00:24:20.879Z,6.31
2016-03-22T00:25:20.834Z,6.34
2016-03-22T00:26:20.821Z,6.28
2016-03-22T00:27:20.809Z,6.27
2016-03-22T00:28:20.811Z,6.24
2016-03-22T00:29:20.782Z,6.27
2016-03-22T00:30:20.769Z,6.19
2016-03-22T00:31:20.741Z,6.16
2016-03-22T00:32:20.743Z,6.15
2016-03-22T00:33:20.714Z,6.11
2016-03-22T00:34:20.702Z,6.11
2016-03-22T00:35:20.672Z,6.05
2016-03-22T00:36:20.675Z,6.13
2016-03-22T00:37:20.662Z,6.02
2016-03-22T00:38:20.681Z,6.13
2016-03-22T00:39:20.715Z,6.12
2016-03-22T00:40:20.608Z,6.13
2016-03-22T00:41:20.579Z,6.12
2016-03-22T00:42:20.598Z,6.01
2016-03-22T00:43:20.398Z,5.99
2016-03-22T00:44:20.540Z,6.09
2016-03-22T00:45:20.528Z,6.09
2016-03-22T00:46:20.515Z,6.02
2016-03-22T00:47:20.487Z,5.99
2016-03-22T00:48:20.489Z,6.12
2016-03-22T00:49:20.476Z,6.11
2016-03-22T00:50:20.463Z,6.06
2016-03-22T00:51:20.419Z,6.04
2016-03-22T00:52:20.422Z,6.12
2016-03-22T00:53:20.424Z,6.12
2016-03-22T00:54:20.381Z,6.06
2016-03-22T00:55:20.367Z,6.11
2016-03-22T00:56:20.354Z,6.08
2016-03-22T00:57:20.341Z,6.08
2016-03-22T00:58:20.313Z,6.04
2016-03-22T00:59:20.299Z,5.97
2016-03-22T01:00:20.303Z,6.04
2016-03-22T01:01:20.289Z,5.88
2016-03-22T01:02:20.260Z,5.94
2016-03-22T01:03:20.248Z,5.96
2016-03-22T01:04:20.235Z,5.9
2016-03-22T01:05:20.222Z,5.91
2016-03-22T01:06:20.194Z,5.91
2016-03-22T01:07:20.180Z,5.9
2016-03-22T01:08:20.183Z,5.88
2016-03-22T01:09:20.358Z,5.87
2016-03-22T01:10:20.126Z,5.79
2016-03-22T01:11:20.113Z,5.86
2016-03-22T01:12:20.101Z,5.79
2016-03-22T01:13:20.087Z,5.76
2016-03-22T01:14:20.075Z,5.81
2016-03-22T01:15:20.046Z,5.69
2016-03-22T01:16:20.033Z,5.76
2016-03-22T01:17:20.020Z,5.75
2016-03-22T01:18:20.007Z,5.69
2016-03-22T01:19:19.994Z,5.61
2016-03-22T01:20:20.372Z,5.63
2016-03-22T01:21:19.953Z,5.65
2016-03-22T01:22:19.939Z,5.63
2016-03-22T01:23:19.927Z,5.66
2016-03-22T01:24:19.929Z,5.65
2016-03-22T01:25:19.885Z,5.48
2016-03-22T01:26:19.732Z,5.54
2016-03-22T01:27:19.859Z,5.48
2016-03-22T01:28:19.847Z,5.51
2016-03-22T01:29:19.833Z,5.51
2016-03-22T01:30:19.820Z,5.55
2016-03-22T01:31:19.792Z,5.48
2016-03-22T01:32:19.780Z,5.44
2016-03-22T01:33:19.782Z,5.48
2016-03-22T01:34:19.753Z,5.37
2016-03-22T01:35:19.741Z,5.48
2016-03-22T01:36:19.711Z,5.47
2016-03-22T01:37:19.714Z,5.45
2016-03-22T01:38:19.685Z,5.5
2016-03-22T01:39:19.720Z,5.48
2016-03-22T01:40:19.660Z,5.51
2016-03-22T01:41:19.647Z,5.5
2016-03-22T01:42:19.634Z,5.54
2016-03-22T01:43:19.605Z,5.44
2016-03-22T01:44:19.593Z,5.4
2016-03-22T01:45:19.579Z,5.44
2016-03-22T01:46:19.551Z,5.47
2016-03-22T01:47:19.537Z,5.45
2016-03-22T01:48:19.526Z,5.4
2016-03-22T01:49:19.496Z,5.5
2016-03-22T01:50:19.499Z,5.55
2016-03-22T01:51:19.471Z,5.48
2016-03-22T01:52:19.473Z,5.48
2016-03-22T01:53:19.461Z,5.52
2016-03-22T01:54:19.401Z,5.58
2016-03-22T01:55:19.419Z,5.55
2016-03-22T01:56:19.422Z,5.61
2016-03-22T01:57:19.389Z,5.55
2016-03-22T01:58:19.347Z,5.61
2016-03-22T01:59:19.337Z,5.61
2016-03-22T02:00:19.279Z,5.54
2016-03-22T02:01:19.284Z,5.65
2016-03-22T02:02:19.229Z,5.6
2016-03-22T02:03:19.210Z,5.63
2016-03-22T02:04:19.193Z,5.57
2016-03-22T02:05:19.175Z,5.63
2016-03-22T02:06:19.157Z,5.65
2016-03-22T02:07:19.140Z,5.61
2016-03-22T02:08:19.142Z,5.61
2016-03-22T02:09:19.111Z,5.68
2016-03-22T02:10:19.096Z,5.61
2016-03-22T02:11:18.911Z,5.6
2016-03-22T02:12:19.037Z,5.73
2016-03-22T02:13:19.038Z,5.69
2016-03-22T02:14:19.008Z,5.75
2016-03-22T02:15:18.996Z,5.68
2016-03-22T02:16:18.965Z,5.66
2016-03-22T02:17:18.843Z,5.69
2016-03-22T02:18:18.940Z,5.69
2016-03-22T02:19:18.927Z,5.7
2016-03-22T02:20:18.961Z,5.68
2016-03-22T02:21:18.901Z,5.68
2016-03-22T02:22:18.903Z,5.69
2016-03-22T02:23:18.938Z,5.65
2016-03-22T02:24:18.722Z,5.68
2016-03-22T02:25:18.849Z,5.61
2016-03-22T02:26:18.821Z,5.69
2016-03-22T02:27:18.808Z,5.61
2016-03-22T02:28:18.794Z,5.66
2016-03-22T02:29:18.782Z,5.68
2016-03-22T02:30:18.758Z,5.68
2016-03-22T02:31:18.760Z,5.65
2016-03-22T02:32:18.732Z,5.66
2016-03-22T02:33:18.735Z,5.61
2016-03-22T02:34:18.706Z,5.63
2016-03-22T02:35:18.694Z,5.6
2016-03-22T02:36:18.665Z,5.55
2016-03-22T02:37:18.651Z,5.54
2016-03-22T02:38:18.623Z,5.6
2016-03-22T02:39:18.767Z,5.58
2016-03-22T02:40:18.612Z,5.51
2016-03-22T02:41:18.616Z,5.61
2016-03-22T02:42:18.572Z,5.54
2016-03-22T02:43:18.558Z,5.65
2016-03-22T02:44:18.562Z,5.65
2016-03-22T02:45:18.517Z,5.6
2016-03-22T02:46:18.503Z,5.6
2016-03-22T02:47:18.491Z,5.58
2016-03-22T02:48:18.478Z,5.58
2016-03-22T02:49:18.466Z,5.6
2016-03-22T02:50:18.453Z,5.55
2016-03-22T02:51:18.424Z,5.58
2016-03-22T02:52:18.411Z,5.54
2016-03-22T02:53:18.398Z,5.52
2016-03-22T02:54:18.385Z,5.47
2016-03-22T02:55:18.372Z,5.52
2016-03-22T02:56:18.344Z,5.51
2016-03-22T02:57:18.331Z,5.4
2016-03-22T02:58:18.318Z,5.48
2016-03-22T02:59:18.321Z,5.48
2016-03-22T03:00:18.276Z,5.44
2016-03-22T03:01:18.263Z,5.48
2016-03-22T03:02:18.251Z,5.36
2016-03-22T03:03:18.237Z,5.44
2016-03-22T03:04:18.224Z,5.39
2016-03-22T03:05:18.212Z,5.33
2016-03-22T03:06:18.183Z,5.33
2016-03-22T03:07:18.170Z,5.34
2016-03-22T03:08:18.157Z,5.34
2016-03-22T03:09:18.145Z,5.27
2016-03-22T03:10:18.131Z,5.32
2016-03-22T03:11:18.118Z,5.36
2016-03-22T03:12:18.090Z,5.48
2016-03-22T03:13:18.076Z,5.29
2016-03-22T03:14:18.064Z,5.44
2016-03-22T03:15:18.036Z,5.27
2016-03-22T03:16:18.038Z,5.3
2016-03-22T03:17:18.010Z,5.24
2016-03-22T03:18:17.981Z,5.3
2016-03-22T03:19:17.983Z,5.26
2016-03-22T03:20:17.971Z,5.27
2016-03-22T03:21:17.942Z,5.27
2016-03-22T03:22:17.772Z,5.26
2016-03-22T03:23:17.916Z,5.21
2016-03-22T03:24:17.919Z,5.18
2016-03-22T03:25:17.874Z,5.14
2016-03-22T03:26:17.878Z,5.15
2016-03-22T03:27:17.849Z,5.11
2016-03-22T03:28:17.835Z,4.99
2016-03-22T03:29:17.824Z,5.08
2016-03-22T03:30:17.794Z,5.04
2016-03-22T03:31:17.782Z,5
2016-03-22T03:32:17.799Z,4.93
2016-03-22T03:33:17.755Z,4.89
2016-03-22T03:34:17.727Z,4.94
2016-03-22T03:35:17.715Z,4.82
2016-03-22T03:36:17.701Z,4.78
2016-03-22T03:37:17.704Z,4.83
2016-03-22T03:38:17.676Z,4.89
2016-03-22T03:39:17.647Z,4.8
2016-03-22T03:40:17.649Z,4.77
2016-03-22T03:41:17.605Z,4.75
2016-03-22T03:42:17.609Z,4.83
2016-03-22T03:43:17.579Z,4.8
2016-03-22T03:44:17.567Z,4.78
2016-03-22T03:45:17.569Z,4.74
2016-03-22T03:46:17.525Z,4.86
2016-03-22T03:47:17.512Z,4.75
2016-03-22T03:48:17.500Z,4.71
2016-03-22T03:49:17.470Z,4.72
2016-03-22T03:50:17.488Z,4.6
2016-03-22T03:51:17.461Z,4.6
2016-03-22T03:52:17.431Z,4.63
2016-03-22T03:53:17.434Z,4.66
2016-03-22T03:54:17.391Z,4.64
2016-03-22T03:55:17.393Z,4.57
2016-03-22T03:56:17.364Z,4.59
2016-03-22T03:57:17.399Z,4.59
2016-03-22T03:58:17.369Z,4.53
2016-03-22T03:59:17.325Z,4.5
2016-03-22T04:00:17.313Z,4.52
2016-03-22T04:01:17.284Z,4.53
2016-03-22T04:02:17.271Z,4.59
2016-03-22T04:03:17.258Z,4.53
2016-03-22T04:04:17.229Z,4.5
2016-03-22T04:05:17.216Z,4.52
2016-03-22T04:06:17.204Z,4.46
2016-03-22T04:07:17.191Z,4.54
2016-03-22T04:08:17.162Z,4.48
2016-03-22T04:09:17.181Z,4.48
2016-03-22T04:10:17.136Z,4.45
2016-03-22T04:11:17.123Z,4.46
2016-03-22T04:12:17.110Z,4.45
2016-03-22T04:13:17.082Z,4.5
2016-03-22T04:14:17.069Z,4.45
2016-03-22T04:15:17.056Z,4.5
2016-03-22T04:16:17.028Z,4.38
2016-03-22T04:17:17.014Z,4.42
2016-03-22T04:18:17.017Z,4.42
2016-03-22T04:19:16.973Z,4.45
2016-03-22T04:20:16.960Z,4.36
2016-03-22T04:21:16.979Z,4.41
2016-03-22T04:22:16.934Z,4.44
2016-03-22T04:23:16.921Z,4.39
2016-03-22T04:24:16.909Z,4.44
2016-03-22T04:25:16.880Z,4.41
2016-03-22T04:26:16.867Z,4.44
2016-03-22T04:27:16.854Z,4.42
2016-03-22T04:28:16.857Z,4.42
2016-03-22T04:29:16.813Z,4.38
2016-03-22T04:30:16.800Z,4.39
2016-03-22T04:31:16.786Z,4.42
2016-03-22T04:32:16.773Z,4.39
2016-03-22T04:33:16.746Z,4.42
2016-03-22T04:34:16.732Z,4.38
2016-03-22T04:35:16.735Z,4.36
2016-03-22T04:36:16.690Z,4.39
2016-03-22T04:37:16.693Z,4.39
2016-03-22T04:38:16.665Z,4.38
2016-03-22T04:39:16.652Z,4.42
2016-03-22T04:40:16.655Z,4.48
2016-03-22T04:41:16.642Z,4.46
2016-03-22T04:42:16.612Z,4.48
2016-03-22T04:43:16.585Z,4.53
2016-03-22T04:44:16.571Z,4.56
2016-03-22T04:45:16.558Z,4.52
2016-03-22T04:46:16.531Z,4.62
2016-03-22T04:47:16.517Z,4.52
2016-03-22T04:48:16.504Z,4.56
2016-03-22T04:49:16.476Z,4.52
2016-03-22T04:50:16.462Z,4.59
2016-03-22T04:51:16.450Z,4.57
2016-03-22T04:52:16.437Z,4.59
2016-03-22T04:53:16.424Z,4.62
2016-03-22T04:54:16.395Z,4.62
2016-03-22T04:55:16.413Z,4.63
2016-03-22T04:56:16.370Z,4.6
2016-03-22T04:57:16.356Z,4.72
2016-03-22T04:58:16.328Z,4.74
2016-03-22T04:59:16.330Z,4.82
2016-03-22T05:00:16.302Z,4.83
2016-03-22T05:01:16.289Z,4.75
2016-03-22T05:02:16.276Z,4.74
2016-03-22T05:03:16.263Z,4.82
2016-03-22T05:04:16.234Z,4.86
2016-03-22T05:05:16.222Z,4.75
2016-03-22T05:06:16.209Z,4.85
2016-03-22T05:07:16.212Z,4.77
2016-03-22T05:08:16.168Z,4.82
2016-03-22T05:09:16.185Z,4.94
2016-03-22T05:10:16.157Z,4.89
2016-03-22T05:11:16.113Z,4.9
2016-03-22T05:12:16.115Z,4.93
2016-03-22T05:13:16.087Z,4.91
2016-03-22T05:14:16.074Z,4.9
2016-03-22T05:15:16.045Z,5
2016-03-22T05:16:16.049Z,5.04
2016-03-22T05:17:16.020Z,5.04
2016-03-22T05:18:16.007Z,5.08
2016-03-22T05:19:16.025Z,5.09
2016-03-22T05:20:15.965Z,5.09
2016-03-22T05:21:15.953Z,5.12
2016-03-22T05:22:15.970Z,5.09
2016-03-22T05:23:15.926Z,5.18
2016-03-22T05:24:15.913Z,5.16
2016-03-22T05:25:15.681Z,5.22
2016-03-22T05:26:15.903Z,5.16
2016-03-22T05:27:15.859Z,5.22
2016-03-22T05:28:15.862Z,5.24
2016-03-22T05:29:15.833Z,5.27
2016-03-22T05:30:15.805Z,5.21
2016-03-22T05:31:15.791Z,5.26
2016-03-22T05:32:15.779Z,5.21
2016-03-22T05:33:15.766Z,5.29
2016-03-22T05:34:15.752Z,5.27
2016-03-22T05:35:15.741Z,5.3
2016-03-22T05:36:15.711Z,5.3
2016-03-22T05:37:19.291Z,5.32
2016-03-22T05:38:15.680Z,5.27
2016-03-22T05:39:15.667Z,5.27
2016-03-22T05:40:22.116Z,5.27
2016-03-22T05:41:15.619Z,5.27
2016-03-22T05:42:15.606Z,5.4
2016-03-22T05:43:15.594Z,5.37
2016-03-22T05:44:15.564Z,5.3
2016-03-22T05:45:15.552Z,5.4
2016-03-22T05:46:15.539Z,5.47
2016-03-22T05:47:15.510Z,5.36
2016-03-22T05:48:15.497Z,5.42
2016-03-22T05:49:15.485Z,5.42
2016-03-22T05:50:15.471Z,5.36
2016-03-22T05:51:15.288Z,5.39
2016-03-22T05:52:15.446Z,5.34
2016-03-22T05:53:15.433Z,5.45
2016-03-22T05:54:15.404Z,5.36
2016-03-22T05:55:15.266Z,5.34
2016-03-22T05:56:15.394Z,5.4
2016-03-22T05:57:15.349Z,5.34
2016-03-22T05:58:15.353Z,5.45
2016-03-22T05:59:15.340Z,5.32
2016-03-22T06:00:15.327Z,5.33
2016-03-22T06:01:15.298Z,5.3
2016-03-22T06:02:15.285Z,5.29
2016-03-22T06:03:15.273Z,5.32
2016-03-22T06:04:15.243Z,5.42
2016-03-22T06:05:15.231Z,5.4
2016-03-22T06:06:15.218Z,5.47
2016-03-22T06:07:15.205Z,5.36
2016-03-22T06:08:15.176Z,5.39
2016-03-22T06:09:15.179Z,5.32
2016-03-22T06:10:15.167Z,5.4
2016-03-22T06:11:15.137Z,5.47
2016-03-22T06:12:15.139Z,5.44
2016-03-22T06:13:15.097Z,5.47
2016-03-22T06:14:15.083Z,5.47
2016-03-22T06:15:15.086Z,5.45
2016-03-22T06:16:15.057Z,5.44
2016-03-22T06:17:15.044Z,5.42
2016-03-22T06:18:15.046Z,5.52
2016-03-22T06:19:15.002Z,5.45
2016-03-22T06:20:15.006Z,5.57
2016-03-22T06:21:14.977Z,5.54
2016-03-22T06:22:14.964Z,5.42
2016-03-22T06:23:14.951Z,5.44
2016-03-22T06:24:14.938Z,5.45
2016-03-22T06:25:14.988Z,5.48
2016-03-22T06:26:14.896Z,5.4
2016-03-22T06:27:14.884Z,5.4
2016-03-22T06:28:14.870Z,5.51
2016-03-22T06:29:14.858Z,5.57
2016-03-22T06:30:14.845Z,5.52
2016-03-22T06:31:14.816Z,5.55
2016-03-22T06:32:14.804Z,5.66
2016-03-22T06:33:14.790Z,5.65
2016-03-22T06:34:14.762Z,5.61
2016-03-22T06:35:14.748Z,5.66
2016-03-22T06:36:14.752Z,5.68
2016-03-22T06:37:14.723Z,5.73
2016-03-22T06:38:14.710Z,5.66
2016-03-22T06:39:14.697Z,5.68
2016-03-22T06:40:14.622Z,5.78
2016-03-22T06:41:14.687Z,5.81
2016-03-22T06:42:14.658Z,5.81
2016-03-22T06:43:14.631Z,5.88
2016-03-22T06:44:14.617Z,5.79
2016-03-22T06:45:14.604Z,5.93
2016-03-22T06:46:14.591Z,5.97
2016-03-22T06:47:14.578Z,6.04
2016-03-22T06:48:14.549Z,6.04
2016-03-22T06:49:14.614Z,6.06
2016-03-22T06:50:14.538Z,6.05
2016-03-22T06:51:14.510Z,6.16
2016-03-22T06:52:14.497Z,6.34
2016-03-22T06:53:14.500Z,6.35
2016-03-22T06:54:14.472Z,6.61
2016-03-22T06:55:14.443Z,6.63
2016-03-22T06:56:14.430Z,6.75
2016-03-22T06:57:14.479Z,6.68
2016-03-22T06:58:14.468Z,6.6
2016-03-22T06:59:14.391Z,6.79
2016-03-22T07:00:14.379Z,7.07
2016-03-22T07:01:14.365Z,7.4
2016-03-22T07:02:14.353Z,7.46
2016-03-22T07:03:14.340Z,7.27
2016-03-22T07:04:14.326Z,7.17
2016-03-22T07:05:14.315Z,7.22
2016-03-22T07:06:14.301Z,7.29
2016-03-22T07:07:14.288Z,7.42
2016-03-22T07:08:14.280Z,7.47
2016-03-22T07:09:14.283Z,7.45
2016-03-22T07:10:14.270Z,7.42
2016-03-22T07:11:14.241Z,7.47
2016-03-22T07:12:14.245Z,7.45
2016-03-22T07:13:14.216Z,7.45
2016-03-22T07:14:14.187Z,7.42
2016-03-22T07:15:14.221Z,7.53
2016-03-22T07:16:14.161Z,7.73
2016-03-22T07:17:14.148Z,8.06
2016-03-22T07:18:14.135Z,8.45
2016-03-22T07:19:14.122Z,8.3
2016-03-22T07:20:14.109Z,8.53
2016-03-22T07:21:14.112Z,8.48
2016-03-22T07:22:14.099Z,8.64
2016-03-22T07:23:14.085Z,9.04
2016-03-22T07:24:14.073Z,9.26
2016-03-22T07:25:14.107Z,9.51
2016-03-22T07:26:14.062Z,9.01
2016-03-22T07:27:14.034Z,8.82
2016-03-22T07:28:14.021Z,8.96
2016-03-22T07:29:14.009Z,8.98
2016-03-22T07:30:14.011Z,8.98
2016-03-22T07:31:13.982Z,9.03
2016-03-22T07:32:14.001Z,9.1
2016-03-22T07:33:13.972Z,9.1
2016-03-22T07:34:13.959Z,9.08
2016-03-22T07:35:13.946Z,9.11
2016-03-22T07:36:13.934Z,8.98
2016-03-22T07:37:13.936Z,9
2016-03-22T07:38:13.908Z,8.93
2016-03-22T07:39:13.895Z,8.7
2016-03-22T07:40:13.897Z,8.63
2016-03-22T07:41:13.884Z,8.52
2016-03-22T07:42:13.871Z,8.56
2016-03-22T07:43:13.875Z,8.55
2016-03-22T07:44:13.845Z,8.5
2016-03-22T07:45:13.833Z,8.4
2016-03-22T07:46:13.817Z,8.43
2016-03-22T07:47:13.805Z,8.5
2016-03-22T07:48:13.807Z,8.46
2016-03-22T07:49:13.778Z,8.53
2016-03-22T07:50:13.765Z,8.49
2016-03-22T07:51:13.753Z,8.6
2016-03-22T07:52:13.739Z,8.56
2016-03-22T07:53:13.741Z,8.52
2016-03-22T07:54:13.713Z,8.66
2016-03-22T07:55:13.701Z,8.86
2016-03-22T07:56:13.687Z,8.96
2016-03-22T07:57:13.690Z,9.06
2016-03-22T07:58:13.662Z,9.06
2016-03-22T07:59:13.649Z,9.01
2016-03-22T08:00:13.667Z,9.03
2016-03-22T08:01:13.638Z,9.22
2016-03-22T08:02:13.626Z,9.59
2016-03-22T08:03:13.612Z,9.9
2016-03-22T08:04:13.600Z,10.02
2016-03-22T08:05:13.587Z,10.17
2016-03-22T08:06:13.573Z,10.05
2016-03-22T08:07:13.577Z,9.84
2016-03-22T08:08:13.548Z,9.68
2016-03-22T08:09:13.551Z,9.68
2016-03-22T08:10:13.537Z,9.5
2016-03-22T08:11:13.525Z,9.48
2016-03-22T08:12:13.528Z,9.3
2016-03-22T08:13:13.499Z,9.26
2016-03-22T08:14:13.486Z,9.12
2016-03-22T08:15:13.489Z,9.04
2016-03-22T08:16:13.475Z,8.98
2016-03-22T08:17:13.463Z,8.93
2016-03-22T08:18:13.450Z,8.98
2016-03-22T08:19:13.437Z,8.98
2016-03-22T08:20:13.424Z,9.04
2016-03-22T08:21:13.411Z,9.19
2016-03-22T08:22:13.398Z,9.3
2016-03-22T08:23:13.386Z,9.12
2016-03-22T08:24:13.388Z,9.06
2016-03-22T08:25:13.360Z,9.1
2016-03-22T08:26:13.346Z,9.12
2016-03-22T08:27:13.349Z,9.22
2016-03-22T08:28:13.321Z,9.28
2016-03-22T08:29:13.308Z,9.33
2016-03-22T08:30:13.311Z,9.28
2016-03-22T08:31:13.282Z,9.29
2016-03-22T08:32:13.284Z,9.28
2016-03-22T08:33:13.271Z,9.32
2016-03-22T08:34:13.243Z,9.22
2016-03-22T08:35:13.245Z,9.33
2016-03-22T08:36:13.232Z,9.23
2016-03-22T08:37:13.219Z,9.25
2016-03-22T08:38:13.207Z,9.3
2016-03-22T08:39:13.194Z,9.68
2016-03-22T08:40:13.181Z,9.79
2016-03-22T08:41:13.168Z,10.26
2016-03-22T08:42:13.155Z,10.51
2016-03-22T08:43:13.158Z,10.81
2016-03-22T08:44:13.129Z,11.19
2016-03-22T08:45:13.132Z,11.5
2016-03-22T08:46:13.134Z,11.93
2016-03-22T08:47:13.121Z,12.62
2016-03-22T08:48:13.094Z,12.62
2016-03-22T08:49:13.096Z,12.47
2016-03-22T08:50:13.083Z,12.49
2016-03-22T08:51:13.070Z,12.42
2016-03-22T08:52:13.088Z,12.61
2016-03-22T08:53:13.060Z,12.46
2016-03-22T08:54:13.046Z,12.24
2016-03-22T08:55:13.034Z,12.29
2016-03-22T08:56:13.036Z,12.25
2016-03-22T08:57:13.023Z,12.21
2016-03-22T08:58:13.011Z,11.98
2016-03-22T08:59:13.013Z,11.87
2016-03-22T09:00:13.001Z,11.73
2016-03-22T09:01:13.004Z,11.37
2016-03-22T09:02:12.991Z,11.37
2016-03-22T09:03:12.977Z,11.44
2016-03-22T09:04:12.964Z,11.84
2016-03-22T09:05:12.951Z,12.09
2016-03-22T09:06:12.970Z,12.11
2016-03-22T09:07:12.954Z,12.03
2016-03-22T09:08:12.925Z,12.16
2016-03-22T09:09:12.928Z,12.1
2016-03-22T09:10:12.915Z,11.91
2016-03-22T09:11:12.902Z,11.88
2016-03-22T09:12:12.905Z,11.73
2016-03-22T09:13:12.923Z,11.85
2016-03-22T09:14:12.879Z,11.87
2016-03-22T09:15:12.897Z,11.8
2016-03-22T09:16:12.869Z,11.88
2016-03-22T09:17:12.855Z,11.65
2016-03-22T09:18:12.843Z,11.9
2016-03-22T09:19:12.845Z,12.22
2016-03-22T09:20:12.849Z,12.29
2016-03-22T09:21:12.819Z,12.22
2016-03-22T09:22:12.821Z,12.27
2016-03-22T09:23:12.809Z,12.14
2016-03-22T09:24:12.874Z,12.14
2016-03-22T09:25:12.783Z,12.11
2016-03-22T09:26:12.770Z,12.1
2016-03-22T09:27:12.774Z,12.06
2016-03-22T09:28:12.760Z,12.18
2016-03-22T09:29:12.762Z,12.31
2016-03-22T09:30:12.750Z,12.22
2016-03-22T09:31:12.737Z,12.27
2016-03-22T09:32:12.724Z,12.31
2016-03-22T09:33:12.726Z,12.44
2016-03-22T09:34:12.714Z,12.47
2016-03-22T09:35:12.717Z,12.29
2016-03-22T09:36:12.703Z,12.98
2016-03-22T09:37:12.691Z,13.38
2016-03-22T09:38:12.693Z,13.64
2016-03-22T09:39:12.695Z,13.13
2016-03-22T09:40:12.667Z,13.38
2016-03-22T09:41:12.670Z,13.68
2016-03-22T09:42:12.689Z,14.05
2016-03-22T09:43:12.660Z,13.78
2016-03-22T09:44:12.647Z,13.77
2016-03-22T09:45:12.633Z,13.74
2016-03-22T09:46:12.622Z,13.78
2016-03-22T09:47:12.624Z,14.33
2016-03-22T09:48:12.627Z,14.69
2016-03-22T09:49:12.629Z,14.57
2016-03-22T09:50:12.616Z,14.52
2016-03-22T09:51:12.619Z,14.23
2016-03-22T09:52:12.590Z,13.84
2016-03-22T09:53:12.593Z,13.94
2016-03-22T09:54:12.580Z,14.12
2016-03-22T09:55:12.582Z,13.9
2016-03-22T09:56:12.571Z,14.15
2016-03-22T09:57:12.557Z,14.26
2016-03-22T09:58:12.544Z,14.02
2016-03-22T09:59:12.562Z,13.46
2016-03-22T10:00:12.581Z,13.2
2016-03-22T10:01:12.537Z,13.31
2016-03-22T10:02:12.539Z,13.72
2016-03-22T10:03:12.526Z,13.22
2016-03-22T10:04:12.545Z,13.01
2016-03-22T10:05:12.515Z,12.72
2016-03-22T10:06:12.504Z,13.01
2016-03-22T10:07:12.506Z,13.54
2016-03-22T10:08:12.492Z,13.93
2016-03-22T10:09:12.481Z,13.6
2016-03-22T10:10:12.483Z,13.42
2016-03-22T10:11:12.470Z,13.02
2016-03-22T10:12:12.472Z,12.9
2016-03-22T10:13:12.459Z,12.85
2016-03-22T10:14:12.447Z,12.79
2016-03-22T10:15:12.465Z,13.01
2016-03-22T10:16:12.436Z,13.44
2016-03-22T10:17:12.423Z,13.87
2016-03-22T10:18:12.425Z,14.32
2016-03-22T10:19:12.413Z,14.52
2016-03-22T10:20:12.416Z,14.69
2016-03-22T10:21:12.402Z,15.03
2016-03-22T10:22:12.405Z,15.36
2016-03-22T10:23:12.408Z,15.39
2016-03-22T10:24:12.379Z,15.37
2016-03-22T10:25:12.382Z,15.06
2016-03-22T10:26:12.385Z,15.24
2016-03-22T10:27:12.372Z,15.31
2016-03-22T10:28:12.374Z,15.39
2016-03-22T10:29:12.362Z,15.71
2016-03-22T10:30:12.365Z,15.79
2016-03-22T10:31:12.351Z,15.67
2016-03-22T10:32:12.338Z,15.5
2016-03-22T10:33:12.357Z,15.57
2016-03-22T10:34:12.343Z,15.51
2016-03-22T10:35:12.331Z,15.47
2016-03-22T10:36:12.178Z,15.11
2016-03-22T10:37:12.321Z,14.4
2016-03-22T10:38:12.323Z,14.11
2016-03-22T10:39:12.311Z,13.97
2016-03-22T10:40:12.314Z,14.19
2016-03-22T10:41:12.394Z,14.19
2016-03-22T10:42:12.318Z,14.08
2016-03-22T10:43:12.289Z,14.25
2016-03-22T10:44:12.277Z,13.96
2016-03-22T10:45:12.280Z,13.99
2016-03-22T10:46:12.283Z,13.79
2016-03-22T10:47:12.269Z,13.6
2016-03-22T10:48:12.272Z,13.74
2016-03-22T10:49:12.244Z,13.78
2016-03-22T10:50:12.262Z,13.92
2016-03-22T10:51:12.249Z,13.59
2016-03-22T10:52:12.235Z,13.82
2016-03-22T10:53:12.238Z,13.87
2016-03-22T10:54:12.226Z,14.1
2016-03-22T10:55:12.229Z,14.21
2016-03-22T10:56:12.122Z,14.07
2016-03-22T10:57:12.202Z,14.17
2016-03-22T10:58:12.190Z,14.07
2016-03-22T10:59:12.035Z,14.11
2016-03-22T11:00:12.180Z,14.14
2016-03-22T11:01:12.166Z,14.33
2016-03-22T11:02:12.184Z,14.23
2016-03-22T11:03:12.157Z,14.19
2016-03-22T11:04:12.188Z,14.51
2016-03-22T11:05:12.138Z,14.29
2016-03-22T11:06:11.962Z,14.5
2016-03-22T11:07:12.115Z,14.54
2016-03-22T11:08:12.113Z,14.29
2016-03-22T11:09:12.094Z,14.27
2016-03-22T11:10:12.094Z,14.15
2016-03-22T11:11:11.798Z,14.03
2016-03-22T11:12:12.064Z,13.99
2016-03-22T11:13:12.049Z,14
2016-03-22T11:14:12.049Z,14.02
2016-03-22T11:15:12.052Z,13.92
2016-03-22T11:16:12.038Z,13.71
2016-03-22T11:17:12.024Z,13.61
2016-03-22T11:18:12.010Z,13.26
2016-03-22T11:19:11.998Z,13.02
2016-03-22T11:20:11.999Z,12.86
2016-03-22T11:21:11.985Z,12.83
2016-03-22T11:22:11.972Z,12.71
2016-03-22T11:23:11.974Z,12.61
2016-03-22T11:24:12.196Z,12.68
2016-03-22T11:25:11.949Z,12.68
2016-03-22T11:26:11.810Z,12.62
2016-03-22T11:27:11.938Z,12.64
2016-03-22T11:28:11.926Z,12.68
2016-03-22T11:29:11.912Z,12.58
2016-03-22T11:30:11.900Z,12.6
2016-03-22T11:31:11.917Z,12.61
2016-03-22T11:32:11.890Z,12.69
2016-03-22T11:33:11.876Z,12.64
2016-03-22T11:34:11.879Z,12.69
2016-03-22T11:35:11.866Z,12.95
2016-03-22T11:36:11.853Z,13
2016-03-22T11:37:11.840Z,13.15
2016-03-22T11:38:11.672Z,13.2
2016-03-22T11:39:11.814Z,13.35
2016-03-22T11:40:11.816Z,13.49
2016-03-22T11:41:11.836Z,13.56
2016-03-22T11:42:11.807Z,13.52
2016-03-22T11:43:11.794Z,13.42
2016-03-22T11:44:11.781Z,13.38
2016-03-22T11:45:11.783Z,13.3
2016-03-22T11:46:11.771Z,13.41
2016-03-22T11:47:11.758Z,13.71
2016-03-22T11:48:11.760Z,13.75
2016-03-22T11:49:11.732Z,13.64
2016-03-22T11:50:11.734Z,13.54
2016-03-22T11:51:11.753Z,13.57
2016-03-22T11:52:11.709Z,13.35
2016-03-22T11:53:11.727Z,13.25
2016-03-22T11:54:11.698Z,12.95
2016-03-22T11:55:11.685Z,12.72
2016-03-22T11:56:11.673Z,12.5
2016-03-22T11:57:11.676Z,12.29
2016-03-22T11:58:11.646Z,12.25
2016-03-22T11:59:11.696Z,12.25
2016-03-22T12:00:11.652Z,12.14
2016-03-22T12:01:11.483Z,12.19
2016-03-22T12:02:11.657Z,12.06
2016-03-22T12:03:11.614Z,11.96
2016-03-22T12:04:11.631Z,11.95
2016-03-22T12:05:11.603Z,11.87
2016-03-22T12:06:11.590Z,11.93
2016-03-22T12:07:11.561Z,11.85
2016-03-22T12:08:11.564Z,11.85
2016-03-22T12:09:11.550Z,11.72
2016-03-22T12:10:11.539Z,11.57
2016-03-22T12:11:11.525Z,11.47
2016-03-22T12:12:11.513Z,11.54
2016-03-22T12:13:11.516Z,11.57
2016-03-22T12:14:11.486Z,11.7
2016-03-22T12:15:11.489Z,11.84
2016-03-22T12:16:11.477Z,12.11
2016-03-22T12:17:11.463Z,12.47
2016-03-22T12:18:11.466Z,12.42
2016-03-22T12:19:11.437Z,12.49
2016-03-22T12:20:11.441Z,12.6
2016-03-22T12:21:11.412Z,12.75
2016-03-22T12:22:11.415Z,13.04
2016-03-22T12:23:11.402Z,13.22
2016-03-22T12:24:11.388Z,13.64
2016-03-22T12:25:11.391Z,13.92
2016-03-22T12:26:11.363Z,14.08
2016-03-22T12:27:11.349Z,14.68
2016-03-22T12:28:11.351Z,15.47
2016-03-22T12:29:11.339Z,16.04
2016-03-22T12:30:11.357Z,16.17
2016-03-22T12:31:11.329Z,15.39
2016-03-22T12:32:11.317Z,14.85
2016-03-22T12:33:11.319Z,14.55
2016-03-22T12:34:11.306Z,14.39
2016-03-22T12:35:11.308Z,14.23
2016-03-22T12:36:11.281Z,14.03
2016-03-22T12:37:11.283Z,13.78
2016-03-22T12:38:11.300Z,13.57
2016-03-22T12:39:11.257Z,13.49
2016-03-22T12:40:11.275Z,13.18
2016-03-22T12:41:11.247Z,12.87
2016-03-22T12:42:11.234Z,12.5
2016-03-22T12:43:11.221Z,12.42
2016-03-22T12:44:11.208Z,12.25
2016-03-22T12:45:11.210Z,12.16
2016-03-22T12:46:11.230Z,11.93
2016-03-22T12:47:11.185Z,11.83
2016-03-22T12:48:11.172Z,11.67
2016-03-22T12:49:11.175Z,11.66
2016-03-22T12:50:11.161Z,11.63
2016-03-22T12:51:11.149Z,11.57
2016-03-22T12:52:11.136Z,11.69
2016-03-22T12:53:11.124Z,11.77
2016-03-22T12:54:11.110Z,11.81
2016-03-22T12:55:11.128Z,11.83
2016-03-22T12:56:11.085Z,12.07
2016-03-22T12:57:11.071Z,12.04
2016-03-22T12:58:11.074Z,12.24
2016-03-22T12:59:11.045Z,12.43
2016-03-22T13:00:11.032Z,12.49
2016-03-22T13:01:11.034Z,12.69
2016-03-22T13:02:11.022Z,12.82
2016-03-22T13:03:11.025Z,12.98
2016-03-22T13:04:10.996Z,13.05
2016-03-22T13:05:10.983Z,13.2
2016-03-22T13:06:10.986Z,13.44
2016-03-22T13:07:10.978Z,13.74
2016-03-22T13:08:10.964Z,13.75
2016-03-22T13:09:10.937Z,13.78
2016-03-22T13:10:10.939Z,14.15
2016-03-22T13:11:10.926Z,14.68
2016-03-22T13:12:10.757Z,15.51